PWSweather.com
Personal Weather Stations
Station Observations
MADWEATHER
MadeiraPT

MadeiraPT

Lat: 32.735, Lon: -17.194

Elevation: 1063

Station Type: Davis VantagePro2

Latest ConditionsUpdated 3:40:01 AM GMT Monday, Nov 24, 2014
Currently Today's Max Today's Min Today's Average
Temperature 57.5°F14.2°C 58.6°F14.8°C 57.4°F14.1°C 57.7°F14.3°C
Dew Point 52.7°F11.5°C 53.2°F11.8°C 50.9°F10.5°C 51.8°F11.0°C
Winds 4.6 mph E7.4 kmh E 5.5 mph E8.9 kmh E - 3.8 mph 6.1 kmh
Wind Gusts 5.0 mph8.0 kmh 8.0 mph12.9 kmh - -
Humidity 84% 85% 76% 81%
Pressure 30.16 in1021.3 mb 30.17 in1021.7 mb 30.15 in1021.0 mb -
Hour Temp Dew Point Humidity Winds Wind Gusts Pressure Precip Precip Rate Daily Precip Total
03:40 AM 57.5°F14.2°C 52.7°F11.5°C 84% 4.6 mph E7.4 kmh E 5.0 mph8.0 kmh 30.16 in1021.3 mb 0.00 in0.0 mm 0.00 in/hr0.0 mm/hr 0.00 in0.0 mm
03:30 AM 57.6°F14.2°C 52.8°F11.6°C 84% 3.3 mph E5.3 kmh E 5.0 mph8.0 kmh 30.16 in1021.3 mb 0.00 in0.0 mm 0.00 in/hr0.0 mm/hr 0.00 in0.0 mm
03:20 AM 57.7°F14.3°C 53.2°F11.8°C 85% 3.9 mph E6.3 kmh E 5.0 mph8.0 kmh 30.16 in1021.3 mb 0.00 in0.0 mm 0.00 in/hr0.0 mm/hr 0.00 in0.0 mm
03:10 AM 57.4°F14.1°C 52.9°F11.6°C 85% 5.5 mph E8.9 kmh E 7.0 mph11.3 kmh 30.16 in1021.3 mb 0.00 in0.0 mm 0.00 in/hr0.0 mm/hr 0.00 in0.0 mm
03:00 AM 57.5°F14.2°C 52.7°F11.5°C 84% 4.1 mph E6.6 kmh E 5.0 mph8.0 kmh 30.15 in1021.0 mb 0.00 in0.0 mm 0.00 in/hr0.0 mm/hr 0.00 in0.0 mm
02:50 AM 57.6°F14.2°C 52.8°F11.6°C 84% 5.0 mph E8.0 kmh E 6.0 mph9.7 kmh 30.15 in1021.0 mb 0.00 in0.0 mm 0.00 in/hr0.0 mm/hr 0.00 in0.0 mm
02:40 AM 57.5°F14.2°C 52.7°F11.5°C 84% 4.3 mph E6.9 kmh E 5.0 mph8.0 kmh 30.15 in1021.0 mb 0.00 in0.0 mm 0.00 in/hr0.0 mm/hr 0.00 in0.0 mm
02:30 AM 57.5°F14.2°C 52.0°F11.1°C 82% 2.3 mph E3.7 kmh E 5.0 mph8.0 kmh 30.16 in1021.3 mb 0.00 in0.0 mm 0.00 in/hr0.0 mm/hr 0.00 in0.0 mm
02:20 AM 57.5°F14.2°C 52.0°F11.1°C 82% 3.8 mph E6.1 kmh E 5.0 mph8.0 kmh 30.16 in1021.3 mb 0.00 in0.0 mm 0.00 in/hr0.0 mm/hr 0.00 in0.0 mm
02:10 AM 57.6°F14.2°C 51.8°F11.0°C 81% 4.0 mph E6.4 kmh E 5.0 mph8.0 kmh 30.16 in1021.3 mb 0.00 in0.0 mm 0.00 in/hr0.0 mm/hr 0.00 in0.0 mm
02:00 AM 57.7°F14.3°C 51.9°F11.1°C 81% 3.1 mph E5.0 kmh E 4.0 mph6.4 kmh 30.16 in1021.3 mb 0.00 in0.0 mm 0.00 in/hr0.0 mm/hr 0.00 in0.0 mm
01:50 AM 57.7°F14.3°C 51.6°F10.9°C 80% 3.9 mph E6.3 kmh E 5.0 mph8.0 kmh 30.16 in1021.3 mb 0.00 in0.0 mm 0.00 in/hr0.0 mm/hr 0.00 in0.0 mm
01:40 AM 57.5°F14.2°C 51.0°F10.6°C 79% 3.4 mph E5.5 kmh E 4.0 mph6.4 kmh 30.16 in1021.3 mb 0.00 in0.0 mm 0.00 in/hr0.0 mm/hr 0.00 in0.0 mm
01:30 AM 57.4°F14.1°C 50.9°F10.5°C 79% 3.7 mph E6.0 kmh E 6.0 mph9.7 kmh 30.16 in1021.3 mb 0.00 in0.0 mm 0.00 in/hr0.0 mm/hr 0.00 in0.0 mm
01:20 AM 57.8°F14.3°C 51.3°F10.7°C 79% 5.5 mph ENE8.9 kmh ENE 6.0 mph9.7 kmh 30.16 in1021.3 mb 0.00 in0.0 mm 0.00 in/hr0.0 mm/hr 0.00 in0.0 mm
01:10 AM 58.2°F14.6°C 51.0°F10.6°C 77% 4.0 mph ENE6.4 kmh ENE 5.0 mph8.0 kmh 30.17 in1021.7 mb 0.00 in0.0 mm 0.00 in/hr0.0 mm/hr 0.00 in0.0 mm
01:00 AM 58.3°F14.6°C 51.1°F10.6°C 77% Calm Calm -- 30.16 in1021.3 mb 0.00 in0.0 mm 0.00 in/hr0.0 mm/hr 0.00 in0.0 mm
12:50 AM 58.6°F14.8°C 51.8°F11.0°C 78% 2.9 mph ENE4.7 kmh ENE 5.0 mph8.0 kmh 30.17 in1021.7 mb 0.00 in0.0 mm 0.00 in/hr0.0 mm/hr 0.00 in0.0 mm
12:40 AM 58.4°F14.7°C 50.9°F10.5°C 76% 3.9 mph ENE6.3 kmh ENE 5.0 mph8.0 kmh 30.17 in1021.7 mb 0.00 in0.0 mm 0.00 in/hr0.0 mm/hr 0.00 in0.0 mm
12:30 AM 58.0°F14.4°C 51.1°F10.6°C 78% 4.0 mph E6.4 kmh E 8.0 mph12.9 kmh 30.17 in1021.7 mb 0.00 in0.0 mm 0.00 in/hr0.0 mm/hr 0.00 in0.0 mm
12:20 AM 57.9°F14.4°C 51.1°F10.6°C 78% 3.6 mph E5.8 kmh E 4.0 mph6.4 kmh 30.17 in1021.7 mb 0.00 in0.0 mm 0.00 in/hr0.0 mm/hr 0.00 in0.0 mm
12:10 AM 57.7°F14.3°C 51.2°F10.7°C 79% 4.1 mph E6.6 kmh E 5.0 mph8.0 kmh 30.17 in1021.7 mb 0.00 in0.0 mm 0.00 in/hr0.0 mm/hr 0.00 in0.0 mm
12:00 AM 57.6°F14.2°C 51.1°F10.6°C 79% 5.2 mph E8.4 kmh E 7.0 mph11.3 kmh 30.16 in1021.3 mb 0.00 in0.0 mm 0.00 in/hr0.0 mm/hr 0.00 in0.0 mm